Adamsville, Pennsylvania
Current Conditions -  °F | °C
As of 8:53 AM on Monday 20 Oct 2014 (Local Time) from KGKJ Reporting Station
Overcast Overcast  
Wind Chill: 40°   Ceiling: 7500
Heat Index: 44°   Visibility: 10mi
Dew Point: 37°   Wind: 8mph
Humidity: 76%   Direction: 180°S
Pressure: 29.95"   Gusts: NA
Location:  41.51°N, 80.37°W
Report Text: KGKJ 201253Z AUTO 18007KT 130V210 10SM OVC075 07/03 A2995 RMK AO2 SLP147 T00670028 TSNO
Loading
Personal Weather Stations






























Interactive Weather Map
Tropical Storm Tracking
New forecast layout! Learn more

10-Day Weather Forecast

Advertisements
Track Severe Weather on mobile